CFG2WG LEBL-EDDL
Flight info
| Callsign | CFG2WG |
|---|---|
| Flight time | N/A |
| Altitude | 34000 |
| Route | OLOXO DCT OKABI DCT TOU DCT ADABI DCT BOKNO DCT DIBES DCT VIQAQ DCT TSU DCT LEQOS DCT CTL DCT ARDEN/N0439F350 DCT KOMOB T859 NVO T857 BIKMU BIKMU1A |
| Aircraft | A21N/M-SDE2E3FGHIRWXY/LB1 |
Departure
| Time | 2026-05-04 19:40 |
|---|---|
| Airport | Josep Tarradellas Barcelona-El Prat Airport (LEBL) |
Arrival
| Time | N/A |
|---|---|
| Airport | Düsseldorf Airport (EDDL) |
| Time | Latitude | Longitude | Altitude | Speed | Heading |
|---|---|---|---|---|---|
| 2026-05-04 19:11 | 41.29009 | 2.08004 | 24 ft | 0 kts | 336° |
| 2026-05-04 19:24 | 41.29008 | 2.08004 | 24 ft | 1 kts | 336° |
| 2026-05-04 19:24 | 41.28986 | 2.08018 | 27 ft | 4 kts | 338° |
| 2026-05-04 19:24 | 41.28961 | 2.08026 | 25 ft | 4 kts | 1° |
| 2026-05-04 19:25 | 41.28936 | 2.08018 | 26 ft | 4 kts | 39° |
| 2026-05-04 19:25 | 41.28926 | 2.08001 | 25 ft | 1 kts | 65° |
| 2026-05-04 19:25 | 41.28925 | 2.07997 | 25 ft | 0 kts | 65° |
| 2026-05-04 19:27 | 41.28926 | 2.08000 | 25 ft | 1 kts | 65° |
| 2026-05-04 19:28 | 41.28935 | 2.08027 | 26 ft | 5 kts | 65° |
| 2026-05-04 19:28 | 41.28955 | 2.08087 | 25 ft | 9 kts | 67° |
| 2026-05-04 19:28 | 41.28912 | 2.08145 | 24 ft | 5 kts | 169° |
| 2026-05-04 19:28 | 41.28868 | 2.08161 | 24 ft | 8 kts | 158° |
| 2026-05-04 19:29 | 41.28816 | 2.08193 | 22 ft | 7 kts | 154° |
| 2026-05-04 19:29 | 41.28765 | 2.08222 | 23 ft | 9 kts | 165° |
| 2026-05-04 19:29 | 41.28728 | 2.08233 | 21 ft | 6 kts | 161° |
| 2026-05-04 19:29 | 41.28712 | 2.08288 | 22 ft | 8 kts | 78° |
| 2026-05-04 19:30 | 41.28733 | 2.08361 | 21 ft | 7 kts | 70° |
| 2026-05-04 19:30 | 41.28753 | 2.08422 | 23 ft | 4 kts | 63° |
| 2026-05-04 19:30 | 41.28766 | 2.08455 | 25 ft | 3 kts | 58° |
| 2026-05-04 19:30 | 41.28792 | 2.08481 | 23 ft | 7 kts | 26° |
| 2026-05-04 19:31 | 41.29009 | 2.08571 | 24 ft | 68 kts | 10° |
| 2026-05-04 19:31 | 41.29643 | 2.08873 | 24 ft | 130 kts | 24° |
| 2026-05-04 19:31 | 41.30269 | 2.09175 | 22 ft | 89 kts | 18° |
| 2026-05-04 19:31 | 41.30442 | 2.09250 | 26 ft | 0 kts | 18° |
| 2026-05-04 19:32 | 41.30458 | 2.09245 | 25 ft | 5 kts | 310° |
| 2026-05-04 19:32 | 41.30386 | 2.09205 | 27 ft | 25 kts | 194° |
| 2026-05-04 19:32 | 41.30209 | 2.09133 | 21 ft | 21 kts | 198° |
| 2026-05-04 19:33 | 41.30178 | 2.09119 | 23 ft | 1 kts | 198° |
| 2026-05-04 19:34 | 41.30167 | 2.09115 | 23 ft | 1 kts | 198° |
| 2026-05-04 19:34 | 41.30009 | 2.09048 | 24 ft | 36 kts | 200° |
| 2026-05-04 19:34 | 41.29768 | 2.08933 | 25 ft | 38 kts | 197° |
| 2026-05-04 19:35 | 41.29524 | 2.08835 | 26 ft | 35 kts | 206° |
| 2026-05-04 19:35 | 41.29295 | 2.08725 | 24 ft | 35 kts | 201° |
| 2026-05-04 19:35 | 41.29065 | 2.08611 | 24 ft | 29 kts | 194° |
| 2026-05-04 19:35 | 41.28893 | 2.08539 | 24 ft | 26 kts | 198° |
| 2026-05-04 19:36 | 41.28809 | 2.08567 | 22 ft | 14 kts | 76° |
| 2026-05-04 19:36 | 41.28849 | 2.08691 | 24 ft | 15 kts | 66° |
| 2026-05-04 19:36 | 41.28894 | 2.08821 | 22 ft | 16 kts | 65° |
| 2026-05-04 19:36 | 41.28941 | 2.08959 | 22 ft | 17 kts | 65° |
| 2026-05-04 19:37 | 41.28992 | 2.09107 | 22 ft | 18 kts | 65° |
| 2026-05-04 19:37 | 41.29045 | 2.09262 | 22 ft | 19 kts | 65° |
| 2026-05-04 19:37 | 41.29101 | 2.09424 | 22 ft | 20 kts | 65° |
| 2026-05-04 19:37 | 41.29158 | 2.09593 | 22 ft | 20 kts | 66° |
| 2026-05-04 19:38 | 41.29218 | 2.09768 | 22 ft | 21 kts | 65° |
| 2026-05-04 19:38 | 41.29277 | 2.09924 | 22 ft | 13 kts | 61° |
| 2026-05-04 19:38 | 41.29277 | 2.09971 | 22 ft | 5 kts | 94° |
| 2026-05-04 19:38 | 41.29272 | 2.10020 | 21 ft | 7 kts | 103° |
| 2026-05-04 19:39 | 41.29258 | 2.10089 | 20 ft | 9 kts | 109° |
| 2026-05-04 19:39 | 41.29235 | 2.10182 | 20 ft | 12 kts | 109° |
| 2026-05-04 19:39 | 41.29208 | 2.10230 | 22 ft | 6 kts | 150° |
| 2026-05-04 19:39 | 41.29177 | 2.10203 | 22 ft | 7 kts | 244° |
| 2026-05-04 19:40 | 41.29120 | 2.10033 | 23 ft | 48 kts | 245° |
| 2026-05-04 19:40 | 41.28885 | 2.09329 | 25 ft | 117 kts | 245° |
| 2026-05-04 19:40 | 41.28472 | 2.08125 | 104 ft | 158 kts | 246° |
| 2026-05-04 19:40 | 41.28026 | 2.06777 | 694 ft | 160 kts | 244° |
| 2026-05-04 19:41 | 41.27370 | 2.05604 | 1306 ft | 163 kts | 218° |
| 2026-05-04 19:41 | 41.26223 | 2.05259 | 1675 ft | 187 kts | 172° |
| 2026-05-04 19:41 | 41.24912 | 2.05706 | 2209 ft | 196 kts | 175° |
| 2026-05-04 19:41 | 41.23564 | 2.05507 | 2794 ft | 200 kts | 205° |
| 2026-05-04 19:42 | 41.22248 | 2.04786 | 3387 ft | 211 kts | 199° |
| 2026-05-04 19:42 | 41.20785 | 2.04366 | 4032 ft | 219 kts | 195° |
| 2026-05-04 19:42 | 41.19300 | 2.03982 | 4744 ft | 221 kts | 195° |
| 2026-05-04 19:42 | 41.17791 | 2.03542 | 5462 ft | 220 kts | 205° |
| 2026-05-04 19:43 | 41.16509 | 2.02427 | 5968 ft | 227 kts | 232° |
| 2026-05-04 19:43 | 41.15796 | 2.00588 | 6512 ft | 232 kts | 258° |
| 2026-05-04 19:43 | 41.15532 | 1.98446 | 7209 ft | 236 kts | 256° |
| 2026-05-04 19:43 | 41.14759 | 1.96528 | 7917 ft | 239 kts | 232° |
| 2026-05-04 19:44 | 41.13701 | 1.94808 | 8674 ft | 240 kts | 237° |
| 2026-05-04 19:44 | 41.12994 | 1.92829 | 9392 ft | 242 kts | 250° |
| 2026-05-04 19:44 | 41.12642 | 1.91381 | 9891 ft | 243 kts | 251° |
| 2026-05-04 19:44 | 41.12151 | 1.89252 | 10541 ft | 246 kts | 252° |
| 2026-05-04 19:45 | 41.11513 | 1.86323 | 11389 ft | 250 kts | 257° |
| 2026-05-04 19:45 | 41.11420 | 1.84767 | 11822 ft | 254 kts | 272° |
| 2026-05-04 19:45 | 41.11856 | 1.82443 | 12196 ft | 275 kts | 287° |
| 2026-05-04 19:45 | 41.12635 | 1.79994 | 12456 ft | 296 kts | 295° |
| 2026-05-04 19:46 | 41.14000 | 1.77818 | 12682 ft | 323 kts | 318° |
| 2026-05-04 19:46 | 41.16102 | 1.76450 | 12939 ft | 350 kts | 342° |
| 2026-05-04 19:46 | 41.18546 | 1.75943 | 13217 ft | 369 kts | 350° |
| 2026-05-04 19:46 | 41.21147 | 1.75572 | 13656 ft | 380 kts | 350° |
| 2026-05-04 19:47 | 41.23813 | 1.75154 | 14235 ft | 384 kts | 349° |
| 2026-05-04 19:47 | 41.26455 | 1.74690 | 14843 ft | 387 kts | 348° |
| 2026-05-04 19:47 | 41.29103 | 1.74200 | 15437 ft | 391 kts | 348° |
| 2026-05-04 19:47 | 41.31836 | 1.73683 | 16021 ft | 395 kts | 348° |
| 2026-05-04 19:48 | 41.34569 | 1.73162 | 16622 ft | 398 kts | 348° |
| 2026-05-04 19:48 | 41.37321 | 1.72636 | 17198 ft | 402 kts | 348° |
| 2026-05-04 19:48 | 41.40096 | 1.72101 | 17763 ft | 406 kts | 348° |
| 2026-05-04 19:48 | 41.42914 | 1.71551 | 18309 ft | 410 kts | 348° |
| 2026-05-04 19:49 | 41.45713 | 1.71013 | 18755 ft | 414 kts | 348° |
| 2026-05-04 19:49 | 41.48595 | 1.70459 | 19145 ft | 417 kts | 348° |
| 2026-05-04 19:49 | 41.51493 | 1.69902 | 19627 ft | 419 kts | 348° |
| 2026-05-04 19:49 | 41.54374 | 1.69349 | 20114 ft | 423 kts | 348° |
| 2026-05-04 19:50 | 41.57321 | 1.68791 | 20617 ft | 426 kts | 348° |
| 2026-05-04 19:50 | 41.60235 | 1.68236 | 21059 ft | 428 kts | 348° |
| 2026-05-04 19:50 | 41.63223 | 1.67660 | 21492 ft | 431 kts | 348° |
| 2026-05-04 19:50 | 41.66193 | 1.67089 | 21919 ft | 434 kts | 348° |
| 2026-05-04 19:51 | 41.69171 | 1.66510 | 22328 ft | 437 kts | 348° |
| 2026-05-04 19:51 | 41.72204 | 1.65918 | 22731 ft | 440 kts | 348° |
| 2026-05-04 19:51 | 41.75239 | 1.65326 | 23120 ft | 443 kts | 348° |
| 2026-05-04 19:51 | 41.78314 | 1.64731 | 23513 ft | 445 kts | 349° |
| 2026-05-04 19:52 | 41.81357 | 1.64137 | 23830 ft | 447 kts | 348° |
| 2026-05-04 19:52 | 41.84446 | 1.63535 | 24147 ft | 450 kts | 348° |
| 2026-05-04 19:52 | 41.87530 | 1.62934 | 24458 ft | 452 kts | 348° |
| 2026-05-04 19:52 | 41.90651 | 1.62323 | 24744 ft | 453 kts | 348° |
| 2026-05-04 19:53 | 41.93774 | 1.61707 | 24993 ft | 452 kts | 348° |
| 2026-05-04 19:53 | 41.96876 | 1.61283 | 24529 ft | 450 kts | 356° |
| 2026-05-04 19:53 | 42.00004 | 1.61699 | 23694 ft | 449 kts | 11° |
| 2026-05-04 19:53 | 42.02955 | 1.63052 | 22738 ft | 447 kts | 25° |
| 2026-05-04 19:54 | 42.05548 | 1.65241 | 21779 ft | 444 kts | 39° |
| 2026-05-04 19:54 | 42.07711 | 1.68246 | 20948 ft | 442 kts | 54° |
| 2026-05-04 19:54 | 42.09219 | 1.71747 | 20304 ft | 437 kts | 69° |